sensor_id;sensor_type;location;lat;lon;timestamp;pressure;altitude;pressure_sealevel;temperature;humidity
80585;BME280;70137;56.482;9.154;2024-01-27T00:00:54;102274.72;;;3.89;96.63
80585;BME280;70137;56.482;9.154;2024-01-27T00:03:19;102270.41;;;3.89;95.70
80585;BME280;70137;56.482;9.154;2024-01-27T00:05:44;102268.06;;;3.85;96.62
80585;BME280;70137;56.482;9.154;2024-01-27T00:08:09;102268.31;;;3.80;96.42
80585;BME280;70137;56.482;9.154;2024-01-27T00:10:35;102279.59;;;3.78;95.77
80585;BME280;70137;56.482;9.154;2024-01-27T00:13:00;102284.72;;;3.78;96.58
80585;BME280;70137;56.482;9.154;2024-01-27T00:15:25;102280.50;;;3.77;96.89
80585;BME280;70137;56.482;9.154;2024-01-27T00:17:51;102275.50;;;3.73;97.07
80585;BME280;70137;56.482;9.154;2024-01-27T00:20:16;102283.94;;;3.76;97.06
80585;BME280;70137;56.482;9.154;2024-01-27T00:22:41;102278.00;;;3.75;97.39
80585;BME280;70137;56.482;9.154;2024-01-27T00:25:07;102287.44;;;3.74;97.13
80585;BME280;70137;56.482;9.154;2024-01-27T00:27:32;102290.91;;;3.73;97.44
80585;BME280;70137;56.482;9.154;2024-01-27T00:29:58;102294.38;;;3.72;97.29
80585;BME280;70137;56.482;9.154;2024-01-27T00:32:23;102296.28;;;3.69;97.65
80585;BME280;70137;56.482;9.154;2024-01-27T00:34:48;102287.78;;;3.68;98.18
80585;BME280;70137;56.482;9.154;2024-01-27T00:37:14;102294.69;;;3.66;97.43
80585;BME280;70137;56.482;9.154;2024-01-27T00:39:39;102292.22;;;3.65;97.90
80585;BME280;70137;56.482;9.154;2024-01-27T00:42:04;102296.50;;;3.64;98.48
80585;BME280;70137;56.482;9.154;2024-01-27T00:44:30;102292.28;;;3.63;98.16
80585;BME280;70137;56.482;9.154;2024-01-27T00:46:55;102294.84;;;3.63;97.84
80585;BME280;70137;56.482;9.154;2024-01-27T00:49:20;102298.16;;;3.65;98.35
80585;BME280;70137;56.482;9.154;2024-01-27T00:51:45;102306.69;;;3.66;98.12
80585;BME280;70137;56.482;9.154;2024-01-27T00:54:11;102311.75;;;3.67;98.32
80585;BME280;70137;56.482;9.154;2024-01-27T00:56:36;102309.19;;;3.67;99.08
80585;BME280;70137;56.482;9.154;2024-01-27T00:59:01;102312.59;;;3.68;99.26
80585;BME280;70137;56.482;9.154;2024-01-27T01:01:27;102317.78;;;3.66;98.83
80585;BME280;70137;56.482;9.154;2024-01-27T01:03:52;102316.13;;;3.65;98.51
80585;BME280;70137;56.482;9.154;2024-01-27T01:06:18;102320.34;;;3.66;98.83
80585;BME280;70137;56.482;9.154;2024-01-27T01:08:43;102317.78;;;3.66;98.58
80585;BME280;70137;56.482;9.154;2024-01-27T01:11:08;102324.50;;;3.69;98.90
80585;BME280;70137;56.482;9.154;2024-01-27T01:13:34;102320.03;;;3.72;99.37
80585;BME280;70137;56.482;9.154;2024-01-27T01:16:00;102323.34;;;3.74;99.39
80585;BME280;70137;56.482;9.154;2024-01-27T01:18:25;102328.47;;;3.74;99.94
80585;BME280;70137;56.482;9.154;2024-01-27T01:20:50;102336.06;;;3.76;100.00
80585;BME280;70137;56.482;9.154;2024-01-27T01:23:16;102343.53;;;3.81;99.70
80585;BME280;70137;56.482;9.154;2024-01-27T01:25:41;102339.91;;;3.85;100.00
80585;BME280;70137;56.482;9.154;2024-01-27T01:28:07;102346.69;;;3.86;100.00
80585;BME280;70137;56.482;9.154;2024-01-27T01:30:33;102353.16;;;3.93;100.00
80585;BME280;70137;56.482;9.154;2024-01-27T01:32:58;102360.47;;;4.00;100.00
80585;BME280;70137;56.482;9.154;2024-01-27T01:35:24;102357.63;;;4.05;100.00
80585;BME280;70137;56.482;9.154;2024-01-27T01:37:49;102361.53;;;4.12;100.00
80585;BME280;70137;56.482;9.154;2024-01-27T01:40:15;102357.97;;;4.15;100.00
80585;BME280;70137;56.482;9.154;2024-01-27T01:42:41;102363.06;;;4.16;100.00
80585;BME280;70137;56.482;9.154;2024-01-27T01:45:07;102355.00;;;4.22;100.00
80585;BME280;70137;56.482;9.154;2024-01-27T01:47:38;102356.59;;;4.25;100.00
80585;BME280;70137;56.482;9.154;2024-01-27T01:50:06;102361.56;;;4.28;100.00
80585;BME280;70137;56.482;9.154;2024-01-27T01:52:32;102366.59;;;4.29;100.00
80585;BME280;70137;56.482;9.154;2024-01-27T01:54:57;102362.31;;;4.30;100.00
80585;BME280;70137;56.482;9.154;2024-01-27T01:57:22;102375.88;;;4.32;100.00
80585;BME280;70137;56.482;9.154;2024-01-27T01:59:48;102377.53;;;4.33;100.00
80585;BME280;70137;56.482;9.154;2024-01-27T02:02:13;102384.31;;;4.34;100.00
80585;BME280;70137;56.482;9.154;2024-01-27T02:04:43;102380.69;;;4.38;100.00
80585;BME280;70137;56.482;9.154;2024-01-27T02:07:09;102381.34;;;4.42;100.00
80585;BME280;70137;56.482;9.154;2024-01-27T02:09:34;102396.75;;;4.42;100.00
80585;BME280;70137;56.482;9.154;2024-01-27T02:12:01;102388.97;;;4.43;100.00
80585;BME280;70137;56.482;9.154;2024-01-27T02:14:26;102389.78;;;4.44;100.00
80585;BME280;70137;56.482;9.154;2024-01-27T02:16:53;102384.50;;;4.47;100.00
80585;BME280;70137;56.482;9.154;2024-01-27T02:19:19;102390.47;;;4.47;100.00
80585;BME280;70137;56.482;9.154;2024-01-27T02:21:44;102379.19;;;4.50;100.00
80585;BME280;70137;56.482;9.154;2024-01-27T02:24:10;102384.16;;;4.53;100.00
80585;BME280;70137;56.482;9.154;2024-01-27T02:26:35;102381.53;;;4.54;100.00
80585;BME280;70137;56.482;9.154;2024-01-27T02:29:01;102390.78;;;4.57;100.00
80585;BME280;70137;56.482;9.154;2024-01-27T02:31:26;102395.94;;;4.57;100.00
80585;BME280;70137;56.482;9.154;2024-01-27T02:33:55;102396.66;;;4.59;100.00
80585;BME280;70137;56.482;9.154;2024-01-27T02:36:20;102390.63;;;4.60;100.00
80585;BME280;70137;56.482;9.154;2024-01-27T02:38:46;102388.97;;;4.59;100.00
80585;BME280;70137;56.482;9.154;2024-01-27T02:41:11;102392.44;;;4.58;100.00
80585;BME280;70137;56.482;9.154;2024-01-27T02:43:40;102389.88;;;4.58;100.00
80585;BME280;70137;56.482;9.154;2024-01-27T02:46:09;102389.97;;;4.56;100.00
80585;BME280;70137;56.482;9.154;2024-01-27T02:48:44;102396.94;;;4.54;100.00
80585;BME280;70137;56.482;9.154;2024-01-27T02:51:10;102403.03;;;4.52;100.00
80585;BME280;70137;56.482;9.154;2024-01-27T02:53:35;102399.75;;;4.50;100.00
80585;BME280;70137;56.482;9.154;2024-01-27T02:56:01;102399.75;;;4.50;100.00
80585;BME280;70137;56.482;9.154;2024-01-27T02:58:30;102387.81;;;4.49;100.00
80585;BME280;70137;56.482;9.154;2024-01-27T03:00:55;102390.28;;;4.50;100.00
80585;BME280;70137;56.482;9.154;2024-01-27T03:03:20;102392.94;;;4.49;100.00
80585;BME280;70137;56.482;9.154;2024-01-27T03:05:46;102386.16;;;4.48;100.00
80585;BME280;70137;56.482;9.154;2024-01-27T03:08:11;102393.94;;;4.46;100.00
80585;BME280;70137;56.482;9.154;2024-01-27T03:10:37;102388.00;;;4.46;100.00
80585;BME280;70137;56.482;9.154;2024-01-27T03:13:05;102391.47;;;4.45;100.00
80585;BME280;70137;56.482;9.154;2024-01-27T03:15:31;102390.69;;;4.43;100.00
80585;BME280;70137;56.482;9.154;2024-01-27T03:17:57;102400.22;;;4.41;100.00
80585;BME280;70137;56.482;9.154;2024-01-27T03:20:23;102399.50;;;4.39;100.00
80585;BME280;70137;56.482;9.154;2024-01-27T03:22:48;102397.84;;;4.38;100.00
80585;BME280;70137;56.482;9.154;2024-01-27T03:25:13;102403.88;;;4.37;100.00
80585;BME280;70137;56.482;9.154;2024-01-27T03:27:39;102415.97;;;4.35;100.00
80585;BME280;70137;56.482;9.154;2024-01-27T03:30:05;102416.13;;;4.31;100.00
80585;BME280;70137;56.482;9.154;2024-01-27T03:32:31;102409.41;;;4.29;100.00
80585;BME280;70137;56.482;9.154;2024-01-27T03:35:00;102422.44;;;4.26;100.00
80585;BME280;70137;56.482;9.154;2024-01-27T03:37:25;102426.75;;;4.25;100.00
80585;BME280;70137;56.482;9.154;2024-01-27T03:39:51;102422.47;;;4.24;100.00
80585;BME280;70137;56.482;9.154;2024-01-27T03:42:16;102423.41;;;4.23;100.00
80585;BME280;70137;56.482;9.154;2024-01-27T03:44:41;102443.09;;;4.23;100.00
80585;BME280;70137;56.482;9.154;2024-01-27T03:47:07;102432.19;;;4.19;100.00
80585;BME280;70137;56.482;9.154;2024-01-27T03:49:32;102441.63;;;4.19;100.00
80585;BME280;70137;56.482;9.154;2024-01-27T03:51:58;102440.97;;;4.15;100.00
80585;BME280;70137;56.482;9.154;2024-01-27T03:54:23;102434.16;;;4.14;100.00
80585;BME280;70137;56.482;9.154;2024-01-27T03:56:48;102443.66;;;4.12;100.00
80585;BME280;70137;56.482;9.154;2024-01-27T03:59:14;102444.59;;;4.11;100.00
80585;BME280;70137;56.482;9.154;2024-01-27T04:01:39;102440.19;;;4.13;100.00
80585;BME280;70137;56.482;9.154;2024-01-27T04:04:05;102442.66;;;4.15;100.00
80585;BME280;70137;56.482;9.154;2024-01-27T04:06:39;102445.25;;;4.15;100.00
80585;BME280;70137;56.482;9.154;2024-01-27T04:09:04;102449.53;;;4.14;100.00
80585;BME280;70137;56.482;9.154;2024-01-27T04:11:30;102453.94;;;4.12;100.00
80585;BME280;70137;56.482;9.154;2024-01-27T04:13:55;102465.84;;;4.13;100.00
80585;BME280;70137;56.482;9.154;2024-01-27T04:16:21;102455.84;;;4.09;100.00
80585;BME280;70137;56.482;9.154;2024-01-27T04:18:46;102464.44;;;4.08;100.00
80585;BME280;70137;56.482;9.154;2024-01-27T04:21:12;102458.63;;;4.04;100.00
80585;BME280;70137;56.482;9.154;2024-01-27T04:23:37;102458.63;;;4.04;100.00
80585;BME280;70137;56.482;9.154;2024-01-27T04:26:02;102470.53;;;4.05;100.00
80585;BME280;70137;56.482;9.154;2024-01-27T04:28:28;102463.53;;;4.09;100.00
80585;BME280;70137;56.482;9.154;2024-01-27T04:30:55;102461.63;;;4.12;100.00
80585;BME280;70137;56.482;9.154;2024-01-27T04:33:20;102454.63;;;4.16;100.00
80585;BME280;70137;56.482;9.154;2024-01-27T04:35:46;102459.50;;;4.20;100.00
80585;BME280;70137;56.482;9.154;2024-01-27T04:38:11;102458.50;;;4.23;100.00
80585;BME280;70137;56.482;9.154;2024-01-27T04:40:37;102461.00;;;4.24;100.00
80585;BME280;70137;56.482;9.154;2024-01-27T04:43:02;102466.06;;;4.26;100.00
80585;BME280;70137;56.482;9.154;2024-01-27T04:45:28;102469.47;;;4.26;100.00
80585;BME280;70137;56.482;9.154;2024-01-27T04:47:53;102464.25;;;4.28;100.00
80585;BME280;70137;56.482;9.154;2024-01-27T04:50:19;102474.44;;;4.29;100.00
80585;BME280;70137;56.482;9.154;2024-01-27T04:52:45;102464.16;;;4.29;100.00
80585;BME280;70137;56.482;9.154;2024-01-27T04:55:11;102470.94;;;4.30;100.00
80585;BME280;70137;56.482;9.154;2024-01-27T04:57:36;102469.13;;;4.32;100.00
80585;BME280;70137;56.482;9.154;2024-01-27T05:00:01;102472.47;;;4.35;100.00
80585;BME280;70137;56.482;9.154;2024-01-27T05:02:28;102469.00;;;4.36;100.00
80585;BME280;70137;56.482;9.154;2024-01-27T05:04:53;102462.13;;;4.36;100.00
80585;BME280;70137;56.482;9.154;2024-01-27T05:07:18;102473.94;;;4.39;100.00
80585;BME280;70137;56.482;9.154;2024-01-27T05:09:44;102461.13;;;4.39;100.00
80585;BME280;70137;56.482;9.154;2024-01-27T05:12:09;102465.34;;;4.40;100.00
80585;BME280;70137;56.482;9.154;2024-01-27T05:14:34;102467.00;;;4.41;100.00
80585;BME280;70137;56.482;9.154;2024-01-27T05:17:00;102467.59;;;4.46;100.00
80585;BME280;70137;56.482;9.154;2024-01-27T05:19:25;102470.06;;;4.47;100.00
80585;BME280;70137;56.482;9.154;2024-01-27T05:21:50;102475.13;;;4.49;100.00
80585;BME280;70137;56.482;9.154;2024-01-27T05:24:16;102476.59;;;4.53;100.00
80585;BME280;70137;56.482;9.154;2024-01-27T05:26:41;102469.69;;;4.55;100.00
80585;BME280;70137;56.482;9.154;2024-01-27T05:29:06;102470.41;;;4.57;100.00
80585;BME280;70137;56.482;9.154;2024-01-27T05:31:32;102473.63;;;4.60;100.00
80585;BME280;70137;56.482;9.154;2024-01-27T05:33:58;102477.78;;;4.63;100.00
80585;BME280;70137;56.482;9.154;2024-01-27T05:36:24;102475.19;;;4.63;100.00
80585;BME280;70137;56.482;9.154;2024-01-27T05:38:50;102475.06;;;4.66;100.00
80585;BME280;70137;56.482;9.154;2024-01-27T05:41:15;102479.28;;;4.67;100.00
80585;BME280;70137;56.482;9.154;2024-01-27T05:43:40;102482.69;;;4.68;100.00
80585;BME280;70137;56.482;9.154;2024-01-27T05:46:08;102480.13;;;4.68;100.00
80585;BME280;70137;56.482;9.154;2024-01-27T05:48:34;102480.94;;;4.68;100.00
80585;BME280;70137;56.482;9.154;2024-01-27T05:51:00;102479.09;;;4.70;100.00
80585;BME280;70137;56.482;9.154;2024-01-27T05:53:26;102479.94;;;4.71;100.00
80585;BME280;70137;56.482;9.154;2024-01-27T05:55:52;102477.28;;;4.72;100.00
80585;BME280;70137;56.482;9.154;2024-01-27T05:58:18;102491.81;;;4.73;100.00
80585;BME280;70137;56.482;9.154;2024-01-27T06:00:46;102494.38;;;4.73;100.00
80585;BME280;70137;56.482;9.154;2024-01-27T06:03:12;102498.53;;;4.76;100.00
80585;BME280;70137;56.482;9.154;2024-01-27T06:05:38;102503.56;;;4.77;100.00
80585;BME280;70137;56.482;9.154;2024-01-27T06:08:05;102504.31;;;4.79;100.00
80585;BME280;70137;56.482;9.154;2024-01-27T06:10:31;102505.97;;;4.80;100.00
80585;BME280;70137;56.482;9.154;2024-01-27T06:12:57;102500.81;;;4.80;100.00
80585;BME280;70137;56.482;9.154;2024-01-27T06:15:22;102499.91;;;4.81;100.00
80585;BME280;70137;56.482;9.154;2024-01-27T06:17:47;102506.78;;;4.81;100.00
80585;BME280;70137;56.482;9.154;2024-01-27T06:20:13;102506.72;;;4.82;100.00
80585;BME280;70137;56.482;9.154;2024-01-27T06:22:38;102499.00;;;4.82;100.00
80585;BME280;70137;56.482;9.154;2024-01-27T06:25:04;102497.34;;;4.81;100.00
80585;BME280;70137;56.482;9.154;2024-01-27T06:27:30;102499.00;;;4.82;100.00
80585;BME280;70137;56.482;9.154;2024-01-27T06:29:55;102508.38;;;4.83;100.00
80585;BME280;70137;56.482;9.154;2024-01-27T06:32:21;102508.38;;;4.83;100.00
80585;BME280;70137;56.482;9.154;2024-01-27T06:34:46;102503.25;;;4.83;100.00
80585;BME280;70137;56.482;9.154;2024-01-27T06:37:11;102508.38;;;4.83;100.00
80585;BME280;70137;56.482;9.154;2024-01-27T06:39:37;102514.28;;;4.85;100.00
80585;BME280;70137;56.482;9.154;2024-01-27T06:42:02;102502.34;;;4.84;100.00
80585;BME280;70137;56.482;9.154;2024-01-27T06:44:28;102498.84;;;4.85;100.00
80585;BME280;70137;56.482;9.154;2024-01-27T06:46:54;102504.91;;;4.84;100.00
80585;BME280;70137;56.482;9.154;2024-01-27T06:49:19;102506.72;;;4.82;100.00
80585;BME280;70137;56.482;9.154;2024-01-27T06:51:45;102507.63;;;4.81;100.00
80585;BME280;70137;56.482;9.154;2024-01-27T06:54:10;102511.28;;;4.77;100.00
80585;BME280;70137;56.482;9.154;2024-01-27T06:56:36;102519.22;;;4.73;100.00
80585;BME280;70137;56.482;9.154;2024-01-27T06:59:05;102525.34;;;4.70;100.00
80585;BME280;70137;56.482;9.154;2024-01-27T07:01:33;102532.50;;;4.65;100.00
80585;BME280;70137;56.482;9.154;2024-01-27T07:03:58;102534.44;;;4.60;100.00
80585;BME280;70137;56.482;9.154;2024-01-27T07:06:25;102529.50;;;4.57;100.00
80585;BME280;70137;56.482;9.154;2024-01-27T07:08:50;102534.03;;;4.52;100.00
80585;BME280;70137;56.482;9.154;2024-01-27T07:11:15;102530.72;;;4.50;100.00
80585;BME280;70137;56.482;9.154;2024-01-27T07:13:41;102529.88;;;4.49;100.00
80585;BME280;70137;56.482;9.154;2024-01-27T07:16:06;102531.44;;;4.52;100.00
80585;BME280;70137;56.482;9.154;2024-01-27T07:18:32;102529.66;;;4.54;100.00
80585;BME280;70137;56.482;9.154;2024-01-27T07:21:00;102537.19;;;4.57;100.00
80585;BME280;70137;56.482;9.154;2024-01-27T07:23:26;102544.81;;;4.58;100.00
80585;BME280;70137;56.482;9.154;2024-01-27T07:25:51;102545.63;;;4.59;100.00
80585;BME280;70137;56.482;9.154;2024-01-27T07:28:17;102547.28;;;4.60;100.00
80585;BME280;70137;56.482;9.154;2024-01-27T07:30:44;102551.53;;;4.61;100.00
80585;BME280;70137;56.482;9.154;2024-01-27T07:33:09;102547.28;;;4.60;100.00
80585;BME280;70137;56.482;9.154;2024-01-27T07:35:34;102554.25;;;4.58;100.00
80585;BME280;70137;56.482;9.154;2024-01-27T07:38:00;102553.53;;;4.56;100.00
80585;BME280;70137;56.482;9.154;2024-01-27T07:40:25;102554.44;;;4.55;100.00
80585;BME280;70137;56.482;9.154;2024-01-27T07:42:50;102564.69;;;4.55;100.00
80585;BME280;70137;56.482;9.154;2024-01-27T07:45:16;102572.53;;;4.52;100.00
80585;BME280;70137;56.482;9.154;2024-01-27T07:47:41;102569.41;;;4.47;100.00
80585;BME280;70137;56.482;9.154;2024-01-27T07:50:07;102580.41;;;4.49;100.00
80585;BME280;70137;56.482;9.154;2024-01-27T07:52:36;102567.66;;;4.47;100.00
80585;BME280;70137;56.482;9.154;2024-01-27T07:55:01;102575.44;;;4.46;100.00
80585;BME280;70137;56.482;9.154;2024-01-27T07:57:27;102578.84;;;4.46;100.00
80585;BME280;70137;56.482;9.154;2024-01-27T07:59:53;102578.84;;;4.46;100.00
80585;BME280;70137;56.482;9.154;2024-01-27T08:02:18;102579.66;;;4.47;100.00
80585;BME280;70137;56.482;9.154;2024-01-27T08:04:44;102570.06;;;4.50;100.00
80585;BME280;70137;56.482;9.154;2024-01-27T08:07:09;102567.28;;;4.55;100.00
80585;BME280;70137;56.482;9.154;2024-01-27T08:09:35;102575.72;;;4.57;100.00
80585;BME280;70137;56.482;9.154;2024-01-27T08:12:01;102582.44;;;4.59;100.00
80585;BME280;70137;56.482;9.154;2024-01-27T08:14:28;102589.97;;;4.63;100.00
80585;BME280;70137;56.482;9.154;2024-01-27T08:16:55;102593.31;;;4.65;100.00
80585;BME280;70137;56.482;9.154;2024-01-27T08:19:21;102590.50;;;4.69;100.00
80585;BME280;70137;56.482;9.154;2024-01-27T08:21:47;102594.41;;;4.76;100.00
80585;BME280;70137;56.482;9.154;2024-01-27T08:24:13;102596.72;;;4.81;100.00
80585;BME280;70137;56.482;9.154;2024-01-27T08:26:39;102604.22;;;4.85;100.00
80585;BME280;70137;56.482;9.154;2024-01-27T08:29:05;102600.47;;;4.91;100.00
80585;BME280;70137;56.482;9.154;2024-01-27T08:31:30;102602.72;;;4.97;100.00
80585;BME280;70137;56.482;9.154;2024-01-27T08:33:56;102600.81;;;5.01;100.00
80585;BME280;70137;56.482;9.154;2024-01-27T08:36:21;102602.31;;;5.05;100.00
80585;BME280;70137;56.482;9.154;2024-01-27T08:38:46;102608.94;;;5.09;100.00
80585;BME280;70137;56.482;9.154;2024-01-27T08:41:13;102595.88;;;5.13;100.00
80585;BME280;70137;56.482;9.154;2024-01-27T08:43:38;102596.53;;;5.17;100.00
80585;BME280;70137;56.482;9.154;2024-01-27T08:46:04;102585.22;;;5.20;100.00
80585;BME280;70137;56.482;9.154;2024-01-27T08:48:30;102588.50;;;5.23;100.00
80585;BME280;70137;56.482;9.154;2024-01-27T08:50:55;102586.66;;;5.25;100.00
80585;BME280;70137;56.482;9.154;2024-01-27T08:53:20;102577.09;;;5.27;100.00
80585;BME280;70137;56.482;9.154;2024-01-27T08:55:45;102583.75;;;5.31;100.00
80585;BME280;70137;56.482;9.154;2024-01-27T08:58:11;102589.66;;;5.33;100.00
80585;BME280;70137;56.482;9.154;2024-01-27T09:00:38;102587.72;;;5.37;100.00
80585;BME280;70137;56.482;9.154;2024-01-27T09:03:03;102593.69;;;5.37;100.00
80585;BME280;70137;56.482;9.154;2024-01-27T09:05:28;102599.53;;;5.41;100.00
80585;BME280;70137;56.482;9.154;2024-01-27T09:07:54;102606.97;;;5.45;100.00
80585;BME280;70137;56.482;9.154;2024-01-27T09:10:19;102612.03;;;5.47;100.00
80585;BME280;70137;56.482;9.154;2024-01-27T09:12:45;102623.88;;;5.50;100.00
80585;BME280;70137;56.482;9.154;2024-01-27T09:15:10;102616.00;;;5.53;100.00
80585;BME280;70137;56.482;9.154;2024-01-27T09:17:36;102624.47;;;5.55;100.00
80585;BME280;70137;56.482;9.154;2024-01-27T09:20:02;102630.25;;;5.58;100.00
80585;BME280;70137;56.482;9.154;2024-01-27T09:22:28;102636.09;;;5.62;100.00
80585;BME280;70137;56.482;9.154;2024-01-27T09:24:53;102627.38;;;5.64;100.00
80585;BME280;70137;56.482;9.154;2024-01-27T09:27:18;102628.84;;;5.68;100.00
80585;BME280;70137;56.482;9.154;2024-01-27T09:29:44;102629.53;;;5.72;100.00
80585;BME280;70137;56.482;9.154;2024-01-27T09:32:09;102628.41;;;5.76;100.00
80585;BME280;70137;56.482;9.154;2024-01-27T09:34:37;102635.06;;;5.80;100.00
80585;BME280;70137;56.482;9.154;2024-01-27T09:37:03;102641.69;;;5.84;100.00
80585;BME280;70137;56.482;9.154;2024-01-27T09:39:28;102640.78;;;5.85;100.00
80585;BME280;70137;56.482;9.154;2024-01-27T09:41:54;102636.38;;;5.87;100.00
80585;BME280;70137;56.482;9.154;2024-01-27T09:44:21;102641.22;;;5.93;100.00
80585;BME280;70137;56.482;9.154;2024-01-27T09:46:47;102640.13;;;5.97;100.00
80585;BME280;70137;56.482;9.154;2024-01-27T09:49:15;102647.69;;;6.00;100.00
80585;BME280;70137;56.482;9.154;2024-01-27T09:51:41;102653.66;;;6.01;100.00
80585;BME280;70137;56.482;9.154;2024-01-27T09:54:07;102650.91;;;6.04;100.00
80585;BME280;70137;56.482;9.154;2024-01-27T09:56:32;102639.59;;;6.07;100.00
80585;BME280;70137;56.482;9.154;2024-01-27T09:58:59;102644.59;;;6.10;100.00
80585;BME280;70137;56.482;9.154;2024-01-27T10:01:26;102647.06;;;6.11;100.00
80585;BME280;70137;56.482;9.154;2024-01-27T10:03:54;102647.16;;;6.10;100.00
80585;BME280;70137;56.482;9.154;2024-01-27T10:06:20;102654.69;;;6.13;100.00
80585;BME280;70137;56.482;9.154;2024-01-27T10:08:53;102655.44;;;6.15;100.00
80585;BME280;70137;56.482;9.154;2024-01-27T10:11:20;102651.13;;;6.15;100.00
80585;BME280;70137;56.482;9.154;2024-01-27T10:13:53;102648.38;;;6.18;100.00
80585;BME280;70137;56.482;9.154;2024-01-27T10:16:19;102649.22;;;6.19;100.00
80585;BME280;70137;56.482;9.154;2024-01-27T10:18:44;102647.72;;;6.15;100.00
80585;BME280;70137;56.482;9.154;2024-01-27T10:21:13;102656.38;;;6.14;100.00
80585;BME280;70137;56.482;9.154;2024-01-27T10:23:39;102650.28;;;6.15;100.00
80585;BME280;70137;56.482;9.154;2024-01-27T10:26:05;102647.56;;;6.18;100.00
80585;BME280;70137;56.482;9.154;2024-01-27T10:28:30;102654.38;;;6.19;100.00
80585;BME280;70137;56.482;9.154;2024-01-27T10:31:10;102653.53;;;6.18;100.00
80585;BME280;70137;56.482;9.154;2024-01-27T10:33:35;102655.84;;;6.23;100.00
80585;BME280;70137;56.482;9.154;2024-01-27T10:36:00;102653.44;;;6.20;100.00
80585;BME280;70137;56.482;9.154;2024-01-27T10:38:37;102664.47;;;6.22;100.00
80585;BME280;70137;56.482;9.154;2024-01-27T10:41:07;102665.22;;;6.24;100.00
80585;BME280;70137;56.482;9.154;2024-01-27T10:43:35;102665.13;;;6.25;99.99
80585;BME280;70137;56.482;9.154;2024-01-27T10:46:03;102659.72;;;6.30;100.00
80585;BME280;70137;56.482;9.154;2024-01-27T10:48:30;102669.94;;;6.31;100.00
80585;BME280;70137;56.482;9.154;2024-01-27T10:50:58;102668.94;;;6.34;100.00
80585;BME280;70137;56.482;9.154;2024-01-27T10:53:26;102673.97;;;6.36;100.00
80585;BME280;70137;56.482;9.154;2024-01-27T10:55:57;102679.72;;;6.41;100.00
80585;BME280;70137;56.482;9.154;2024-01-27T10:58:24;102684.78;;;6.42;100.00
80585;BME280;70137;56.482;9.154;2024-01-27T11:00:53;102682.84;;;6.46;100.00
80585;BME280;70137;56.482;9.154;2024-01-27T11:03:18;102686.00;;;6.51;100.00
80585;BME280;70137;56.482;9.154;2024-01-27T11:05:46;102691.03;;;6.52;100.00
80585;BME280;70137;56.482;9.154;2024-01-27T11:08:12;102688.97;;;6.59;100.00
80585;BME280;70137;56.482;9.154;2024-01-27T11:10:39;102678.38;;;6.64;100.00
80585;BME280;70137;56.482;9.154;2024-01-27T11:13:05;102680.03;;;6.65;100.00
80585;BME280;70137;56.482;9.154;2024-01-27T11:15:32;102670.28;;;6.70;100.00
80585;BME280;70137;56.482;9.154;2024-01-27T11:17:58;102676.25;;;6.70;99.26
80585;BME280;70137;56.482;9.154;2024-01-27T11:20:27;102671.00;;;6.72;99.57
80585;BME280;70137;56.482;9.154;2024-01-27T11:22:52;102668.25;;;6.75;99.04
80585;BME280;70137;56.482;9.154;2024-01-27T11:25:19;102674.06;;;6.78;100.00
80585;BME280;70137;56.482;9.154;2024-01-27T11:27:46;102666.25;;;6.80;98.83
80585;BME280;70137;56.482;9.154;2024-01-27T11:30:25;102669.34;;;6.85;99.26
80585;BME280;70137;56.482;9.154;2024-01-27T11:32:53;102671.28;;;6.81;99.00
80585;BME280;70137;56.482;9.154;2024-01-27T11:35:18;102669.44;;;6.83;99.01
80585;BME280;70137;56.482;9.154;2024-01-27T11:37:43;102666.78;;;6.85;98.40
80585;BME280;70137;56.482;9.154;2024-01-27T11:40:09;102664.75;;;6.90;98.50
80585;BME280;70137;56.482;9.154;2024-01-27T11:42:35;102667.53;;;6.87;98.29
80585;BME280;70137;56.482;9.154;2024-01-27T11:45:01;102672.69;;;6.87;98.54
80585;BME280;70137;56.482;9.154;2024-01-27T11:47:27;102672.50;;;6.90;98.13
80585;BME280;70137;56.482;9.154;2024-01-27T11:49:54;102679.31;;;6.91;97.39
80585;BME280;70137;56.482;9.154;2024-01-27T11:52:21;102679.31;;;6.91;97.85
80585;BME280;70137;56.482;9.154;2024-01-27T11:54:56;102682.63;;;6.93;98.34
80585;BME280;70137;56.482;9.154;2024-01-27T11:57:22;102685.97;;;6.95;97.92
80585;BME280;70137;56.482;9.154;2024-01-27T11:59:48;102700.84;;;7.04;97.11
80585;BME280;70137;56.482;9.154;2024-01-27T12:02:14;102700.94;;;7.03;97.40
80585;BME280;70137;56.482;9.154;2024-01-27T12:04:40;102699.03;;;7.06;96.88
80585;BME280;70137;56.482;9.154;2024-01-27T12:07:06;102694.81;;;7.05;96.29
80585;BME280;70137;56.482;9.154;2024-01-27T12:09:31;102687.97;;;7.04;96.09
80585;BME280;70137;56.482;9.154;2024-01-27T12:11:57;102695.63;;;7.06;96.89
80585;BME280;70137;56.482;9.154;2024-01-27T12:14:22;102693.78;;;7.08;96.97
80585;BME280;70137;56.482;9.154;2024-01-27T12:16:48;102703.81;;;7.12;96.85
80585;BME280;70137;56.482;9.154;2024-01-27T12:19:13;102703.81;;;7.12;96.67
80585;BME280;70137;56.482;9.154;2024-01-27T12:21:38;102698.00;;;7.09;95.88
80585;BME280;70137;56.482;9.154;2024-01-27T12:24:15;102700.50;;;7.10;95.98
80585;BME280;70137;56.482;9.154;2024-01-27T12:26:42;102698.94;;;7.08;96.36
80585;BME280;70137;56.482;9.154;2024-01-27T12:29:07;102708.59;;;7.04;95.39
80585;BME280;70137;56.482;9.154;2024-01-27T12:31:32;102714.50;;;7.06;96.07
80585;BME280;70137;56.482;9.154;2024-01-27T12:33:58;102718.84;;;7.06;96.10
80585;BME280;70137;56.482;9.154;2024-01-27T12:36:26;102716.50;;;7.01;96.06
80585;BME280;70137;56.482;9.154;2024-01-27T12:38:57;102713.84;;;7.03;95.61
80585;BME280;70137;56.482;9.154;2024-01-27T12:41:27;102715.69;;;7.01;95.13
80585;BME280;70137;56.482;9.154;2024-01-27T12:43:53;102716.03;;;6.95;95.75
80585;BME280;70137;56.482;9.154;2024-01-27T12:46:19;102715.22;;;6.94;96.12